createdAt,value
2018-12-31T00:00:11.494Z,4.60
2018-12-31T00:02:41.913Z,4.60
2018-12-31T00:05:11.645Z,4.60
2018-12-31T00:07:41.465Z,4.60
2018-12-31T00:10:11.269Z,4.60
2018-12-31T00:12:41.003Z,4.50
2018-12-31T00:15:10.811Z,4.40
2018-12-31T00:17:40.605Z,4.30
2018-12-31T00:20:10.343Z,4.10
2018-12-31T00:22:40.263Z,4.10
2018-12-31T00:25:10.003Z,4.10
2018-12-31T00:27:39.812Z,4.10
2018-12-31T00:30:09.538Z,4.00
2018-12-31T00:32:39.361Z,4.10
2018-12-31T00:35:09.094Z,4.10
2018-12-31T00:37:38.899Z,4.00
2018-12-31T00:40:08.637Z,4.00
2018-12-31T00:42:38.453Z,4.00
2018-12-31T00:45:08.190Z,4.00
2018-12-31T00:47:37.998Z,4.00
2018-12-31T00:50:07.736Z,4.00
2018-12-31T00:52:37.449Z,4.10
2018-12-31T00:55:07.283Z,4.10
2018-12-31T00:57:37.014Z,4.10
2018-12-31T01:00:06.819Z,4.20
2018-12-31T01:02:36.618Z,4.20
2018-12-31T01:05:06.417Z,4.10
2018-12-31T01:07:36.182Z,4.20
2018-12-31T01:10:06.781Z,4.10
2018-12-31T01:12:36.508Z,4.10
2018-12-31T01:15:06.309Z,4.00
2018-12-31T01:17:36.113Z,3.90
2018-12-31T01:20:05.844Z,3.90
2018-12-31T01:22:35.649Z,3.90
2018-12-31T01:25:05.381Z,3.80
2018-12-31T01:27:35.210Z,3.80
2018-12-31T01:30:06.042Z,3.90
2018-12-31T01:32:35.854Z,3.90
2018-12-31T01:35:05.790Z,4.00
2018-12-31T01:37:35.607Z,4.00
2018-12-31T01:40:06.237Z,4.00
2018-12-31T01:42:36.042Z,4.00
2018-12-31T01:45:05.866Z,4.00
2018-12-31T01:47:35.665Z,4.20
2018-12-31T01:50:05.564Z,4.30
2018-12-31T01:52:35.292Z,4.30
2018-12-31T01:55:05.414Z,4.30
2018-12-31T01:57:35.226Z,4.30
2018-12-31T02:00:06.340Z,4.40
2018-12-31T02:02:36.069Z,4.40
2018-12-31T02:05:06.681Z,4.50
2018-12-31T02:07:36.419Z,4.50
2018-12-31T02:10:07.320Z,4.50
2018-12-31T02:12:37.063Z,4.50
2018-12-31T02:15:07.566Z,4.50
2018-12-31T02:17:37.285Z,4.50
2018-12-31T02:20:07.094Z,4.50
2018-12-31T02:22:36.889Z,4.50
2018-12-31T02:25:06.625Z,4.50
2018-12-31T02:27:36.435Z,4.50
2018-12-31T02:30:06.193Z,4.60
2018-12-31T02:32:36.010Z,4.60
2018-12-31T02:35:05.737Z,4.50
2018-12-31T02:37:35.534Z,4.40
2018-12-31T02:40:06.237Z,4.50
2018-12-31T02:42:36.101Z,4.40
2018-12-31T02:45:05.934Z,4.40
2018-12-31T02:47:35.733Z,4.30
2018-12-31T02:50:06.843Z,4.30
2018-12-31T02:52:36.565Z,4.30
2018-12-31T02:55:06.367Z,4.20
2018-12-31T02:57:36.094Z,4.20
2018-12-31T03:00:07.404Z,4.20
2018-12-31T03:02:37.140Z,4.10
2018-12-31T03:05:06.941Z,4.00
2018-12-31T03:07:36.738Z,4.00
2018-12-31T03:10:06.543Z,4.00
2018-12-31T03:12:36.378Z,4.00
2018-12-31T03:15:07.497Z,3.90
2018-12-31T03:17:37.307Z,4.00
2018-12-31T03:20:07.118Z,3.90
2018-12-31T03:22:36.914Z,3.90
2018-12-31T03:25:06.717Z,4.00
2018-12-31T03:27:36.447Z,4.00
2018-12-31T03:30:07.381Z,4.00
2018-12-31T03:32:37.103Z,4.00
2018-12-31T03:35:06.911Z,4.10
2018-12-31T03:37:36.645Z,4.20
2018-12-31T03:40:06.544Z,4.20
2018-12-31T03:42:36.347Z,4.30
2018-12-31T03:45:06.862Z,4.20
2018-12-31T03:47:36.662Z,4.30
2018-12-31T03:50:07.801Z,4.30
2018-12-31T03:52:37.645Z,4.40
2018-12-31T03:55:07.390Z,4.40
2018-12-31T03:57:37.184Z,4.40
2018-12-31T04:00:06.918Z,4.40
2018-12-31T04:02:36.773Z,4.40
2018-12-31T04:05:06.501Z,4.40
2018-12-31T04:07:36.319Z,4.40
2018-12-31T04:10:06.040Z,4.30
2018-12-31T04:12:35.841Z,4.30
2018-12-31T04:15:05.664Z,4.30
2018-12-31T04:17:35.469Z,4.40
2018-12-31T04:20:05.873Z,4.40
2018-12-31T04:22:35.602Z,4.40
2018-12-31T04:25:05.438Z,4.40
2018-12-31T04:27:35.174Z,4.40
2018-12-31T04:30:05.400Z,4.30
2018-12-31T04:32:35.188Z,4.20
